sensor_id;sensor_type;location;lat;lon;timestamp;pressure;altitude;pressure_sealevel;temperature;humidity
57708;BME280;43540;51.690;9.562;2023-08-07T10:55:25;98603.81;;;14.62;100.00
57708;BME280;43540;51.690;9.562;2023-08-07T10:57:54;98600.41;;;14.21;100.00
57708;BME280;43540;51.690;9.562;2023-08-07T11:00:27;98650.31;;;14.39;100.00
57708;BME280;43540;51.690;9.562;2023-08-07T11:02:57;98543.00;;;13.27;100.00
57708;BME280;43540;51.690;9.562;2023-08-07T11:05:26;98564.53;;;13.30;100.00
57708;BME280;43540;51.690;9.562;2023-08-07T11:07:53;98560.44;;;13.28;100.00
57708;BME280;43540;51.690;9.562;2023-08-07T11:10:23;98563.75;;;13.46;100.00
57708;BME280;43540;51.690;9.562;2023-08-07T11:49:15;98703.53;;;15.61;100.00
57708;BME280;43540;51.690;9.562;2023-08-07T11:51:42;98606.63;;;14.44;100.00
57708;BME280;43540;51.690;9.562;2023-08-07T11:54:14;98596.78;;;14.46;100.00
57708;BME280;43540;51.690;9.562;2023-08-07T11:56:42;98806.13;;;15.42;100.00
57708;BME280;43540;51.690;9.562;2023-08-07T11:59:09;98589.72;;;13.98;100.00
57708;BME280;43540;51.690;9.562;2023-08-07T12:01:38;98599.94;;;14.01;100.00
57708;BME280;43540;51.690;9.562;2023-08-07T12:06:37;98621.03;;;14.17;100.00
57708;BME280;43540;51.690;9.562;2023-08-07T12:09:07;98642.25;;;14.32;100.00
57708;BME280;43540;51.690;9.562;2023-08-07T12:11:40;98669.78;;;14.54;100.00
57708;BME280;43540;51.690;9.562;2023-08-07T12:14:07;98611.63;;;14.15;100.00
57708;BME280;43540;51.690;9.562;2023-08-07T12:16:34;98587.44;;;13.95;100.00
57708;BME280;43540;51.690;9.562;2023-08-07T12:19:03;98597.97;;;14.19;100.00
57708;BME280;43540;51.690;9.562;2023-08-07T12:21:31;98588.69;;;14.32;100.00
57708;BME280;43540;51.690;9.562;2023-08-07T13:42:18;98748.66;;;15.91;100.00
57708;BME280;43540;51.690;9.562;2023-08-07T13:44:45;98825.91;;;16.55;100.00
57708;BME280;43540;51.690;9.562;2023-08-07T13:47:12;98716.47;;;16.10;100.00
57708;BME280;43540;51.690;9.562;2023-08-07T13:49:42;98818.59;;;16.57;100.00
57708;BME280;43540;51.690;9.562;2023-08-07T13:52:10;98764.50;;;16.14;100.00
57708;BME280;43540;51.690;9.562;2023-08-07T13:54:39;98819.56;;;15.79;100.00
57708;BME280;43540;51.690;9.562;2023-08-07T13:57:07;98775.81;;;15.29;100.00
57708;BME280;43540;51.690;9.562;2023-08-07T13:59:34;98747.19;;;14.94;100.00
57708;BME280;43540;51.690;9.562;2023-08-07T14:02:01;98790.22;;;15.11;100.00
57708;BME280;43540;51.690;9.562;2023-08-07T14:04:29;98756.13;;;14.76;100.00
57708;BME280;43540;51.690;9.562;2023-08-07T14:06:57;98753.84;;;14.73;100.00
57708;BME280;43540;51.690;9.562;2023-08-07T14:09:25;98755.56;;;15.05;100.00
57708;BME280;43540;51.690;9.562;2023-08-07T14:11:52;98744.94;;;15.30;100.00
57708;BME280;43540;51.690;9.562;2023-08-07T14:14:25;98765.00;;;15.55;100.00
57708;BME280;43540;51.690;9.562;2023-08-07T14:16:53;98877.56;;;16.43;100.00
57708;BME280;43540;51.690;9.562;2023-08-07T14:19:24;98789.19;;;16.06;100.00
57708;BME280;43540;51.690;9.562;2023-08-07T14:21:51;98776.31;;;16.03;100.00
57708;BME280;43540;51.690;9.562;2023-08-07T14:24:19;98806.03;;;16.05;100.00
57708;BME280;43540;51.690;9.562;2023-08-07T14:26:47;98798.13;;;16.05;100.00
57708;BME280;43540;51.690;9.562;2023-08-07T14:29:14;98836.22;;;16.19;100.00
57708;BME280;43540;51.690;9.562;2023-08-07T14:31:41;98818.31;;;15.98;100.00
57708;BME280;43540;51.690;9.562;2023-08-07T14:34:08;98809.94;;;15.86;100.00
57708;BME280;43540;51.690;9.562;2023-08-07T14:36:36;98775.56;;;15.55;100.00
57708;BME280;43540;51.690;9.562;2023-08-07T14:39:03;98784.03;;;15.34;100.00
57708;BME280;43540;51.690;9.562;2023-08-07T14:41:31;98836.72;;;15.28;100.00
57708;BME280;43540;51.690;9.562;2023-08-07T14:43:58;98802.78;;;14.92;100.00
57708;BME280;43540;51.690;9.562;2023-08-07T14:46:25;98893.63;;;15.47;100.00
57708;BME280;43540;51.690;9.562;2023-08-07T14:48:59;98926.78;;;15.74;100.00
57708;BME280;43540;51.690;9.562;2023-08-07T14:51:27;99006.47;;;16.10;100.00
57708;BME280;43540;51.690;9.562;2023-08-07T14:53:54;99007.97;;;16.04;100.00
57708;BME280;43540;51.690;9.562;2023-08-07T14:56:20;99013.34;;;16.27;100.00
57708;BME280;43540;51.690;9.562;2023-08-07T14:58:47;99012.19;;;16.30;100.00
57708;BME280;43540;51.690;9.562;2023-08-07T15:01:17;99016.56;;;16.45;100.00
57708;BME280;43540;51.690;9.562;2023-08-07T15:03:44;99008.31;;;16.48;100.00
57708;BME280;43540;51.690;9.562;2023-08-07T15:06:14;98998.03;;;16.93;100.00
57708;BME280;43540;51.690;9.562;2023-08-07T15:08:41;99016.56;;;16.93;98.83
57708;BME280;43540;51.690;9.562;2023-08-07T15:11:08;98998.47;;;16.73;100.00
57708;BME280;43540;51.690;9.562;2023-08-07T15:13:34;99006.56;;;16.72;98.50
57708;BME280;43540;51.690;9.562;2023-08-07T15:16:01;99010.50;;;16.84;97.30
57708;BME280;43540;51.690;9.562;2023-08-07T15:18:28;98996.00;;;16.64;99.22
57708;BME280;43540;51.690;9.562;2023-08-07T15:20:55;98985.00;;;16.44;98.21
57708;BME280;43540;51.690;9.562;2023-08-07T15:23:21;99017.25;;;16.47;95.89
57708;BME280;43540;51.690;9.562;2023-08-07T15:25:54;99011.13;;;16.55;95.50
57708;BME280;43540;51.690;9.562;2023-08-07T15:28:23;98982.38;;;16.44;100.00
57708;BME280;43540;51.690;9.562;2023-08-07T15:30:50;99014.72;;;16.54;98.47
57708;BME280;43540;51.690;9.562;2023-08-07T15:33:17;99020.91;;;16.46;95.53
57708;BME280;43540;51.690;9.562;2023-08-07T15:35:46;99008.16;;;16.42;98.56
57708;BME280;43540;51.690;9.562;2023-08-07T15:38:13;99022.88;;;16.44;98.42
57708;BME280;43540;51.690;9.562;2023-08-07T15:40:40;99015.38;;;16.64;100.00
57708;BME280;43540;51.690;9.562;2023-08-07T15:43:10;99006.03;;;17.08;95.59
57708;BME280;43540;51.690;9.562;2023-08-07T15:45:40;99002.63;;;17.22;93.41
57708;BME280;43540;51.690;9.562;2023-08-07T15:48:07;99006.88;;;17.31;95.15
57708;BME280;43540;51.690;9.562;2023-08-07T15:50:35;99015.16;;;17.28;89.83
57708;BME280;43540;51.690;9.562;2023-08-07T15:53:05;99031.88;;;17.51;90.07
57708;BME280;43540;51.690;9.562;2023-08-07T15:55:32;99007.81;;;17.38;91.04
57708;BME280;43540;51.690;9.562;2023-08-07T15:58:02;99012.06;;;17.62;87.42
57708;BME280;43540;51.690;9.562;2023-08-07T16:00:30;99013.25;;;17.37;86.45
57708;BME280;43540;51.690;9.562;2023-08-07T16:03:03;99011.84;;;17.49;83.16
57708;BME280;43540;51.690;9.562;2023-08-07T16:05:32;98974.31;;;17.22;83.57
57708;BME280;43540;51.690;9.562;2023-08-07T16:07:59;99010.22;;;17.62;82.02
57708;BME280;43540;51.690;9.562;2023-08-07T16:10:26;99005.63;;;17.79;73.57
57708;BME280;43540;51.690;9.562;2023-08-07T16:12:54;98989.84;;;17.86;80.64
57708;BME280;43540;51.690;9.562;2023-08-07T16:15:22;98999.88;;;17.90;73.41
57708;BME280;43540;51.690;9.562;2023-08-07T16:17:49;99017.63;;;17.90;70.63
57708;BME280;43540;51.690;9.562;2023-08-07T16:20:19;99018.91;;;17.79;73.42
57708;BME280;43540;51.690;9.562;2023-08-07T16:22:46;99018.69;;;17.43;74.02
57708;BME280;43540;51.690;9.562;2023-08-07T16:25:13;99014.22;;;17.21;81.36
57708;BME280;43540;51.690;9.562;2023-08-07T16:27:40;99019.69;;;16.96;78.74
57708;BME280;43540;51.690;9.562;2023-08-07T16:30:07;98978.97;;;16.66;71.94
57708;BME280;43540;51.690;9.562;2023-08-07T16:32:36;99020.81;;;16.71;77.76
57708;BME280;43540;51.690;9.562;2023-08-07T16:35:03;99015.50;;;16.71;79.43
57708;BME280;43540;51.690;9.562;2023-08-07T16:37:31;99028.09;;;16.69;78.06
57708;BME280;43540;51.690;9.562;2023-08-07T16:40:01;99015.50;;;16.63;83.89
57708;BME280;43540;51.690;9.562;2023-08-07T16:42:31;99026.00;;;16.56;80.40
57708;BME280;43540;51.690;9.562;2023-08-07T16:45:08;99021.53;;;16.57;79.42
57708;BME280;43540;51.690;9.562;2023-08-07T16:47:35;99034.63;;;16.42;84.44
57708;BME280;43540;51.690;9.562;2023-08-07T16:50:02;99034.00;;;16.32;84.47
57708;BME280;43540;51.690;9.562;2023-08-07T16:52:32;99039.44;;;16.38;84.72
57708;BME280;43540;51.690;9.562;2023-08-07T16:54:59;99050.72;;;16.24;86.74
57708;BME280;43540;51.690;9.562;2023-08-07T16:57:26;99060.28;;;16.25;87.36
57708;BME280;43540;51.690;9.562;2023-08-07T16:59:53;99057.03;;;15.99;98.81
57708;BME280;43540;51.690;9.562;2023-08-07T17:02:19;99047.31;;;15.58;100.00
57708;BME280;43540;51.690;9.562;2023-08-07T17:04:48;99068.44;;;15.58;100.00
57708;BME280;43540;51.690;9.562;2023-08-07T17:07:21;99076.69;;;15.31;100.00
57708;BME280;43540;51.690;9.562;2023-08-07T17:09:47;99063.78;;;15.20;100.00
57708;BME280;43540;51.690;9.562;2023-08-07T17:12:14;99083.13;;;15.28;100.00
57708;BME280;43540;51.690;9.562;2023-08-07T17:14:41;99084.69;;;15.05;100.00
57708;BME280;43540;51.690;9.562;2023-08-07T17:17:11;99090.47;;;15.08;100.00
57708;BME280;43540;51.690;9.562;2023-08-07T17:19:38;99093.75;;;14.94;100.00
57708;BME280;43540;51.690;9.562;2023-08-07T17:22:05;99060.97;;;14.63;100.00
57708;BME280;43540;51.690;9.562;2023-08-07T17:24:33;99055.38;;;14.66;100.00
57708;BME280;43540;51.690;9.562;2023-08-07T17:26:59;99083.75;;;14.72;100.00
57708;BME280;43540;51.690;9.562;2023-08-07T17:29:27;99059.84;;;14.65;100.00
57708;BME280;43540;51.690;9.562;2023-08-07T17:31:54;99093.81;;;14.68;100.00
57708;BME280;43540;51.690;9.562;2023-08-07T17:34:24;99094.00;;;14.75;100.00
57708;BME280;43540;51.690;9.562;2023-08-07T17:36:51;99086.34;;;14.56;100.00
57708;BME280;43540;51.690;9.562;2023-08-07T17:39:18;99086.72;;;14.43;100.00
57708;BME280;43540;51.690;9.562;2023-08-07T17:41:45;99100.56;;;14.37;100.00
57708;BME280;43540;51.690;9.562;2023-08-07T17:44:14;99105.13;;;14.35;100.00
57708;BME280;43540;51.690;9.562;2023-08-07T17:46:43;99109.09;;;14.57;100.00
57708;BME280;43540;51.690;9.562;2023-08-07T17:49:12;99112.50;;;14.49;100.00
57708;BME280;43540;51.690;9.562;2023-08-07T17:51:39;99111.19;;;14.53;100.00
57708;BME280;43540;51.690;9.562;2023-08-07T17:54:06;99115.81;;;14.51;100.00
57708;BME280;43540;51.690;9.562;2023-08-07T17:56:32;99120.25;;;14.50;100.00
57708;BME280;43540;51.690;9.562;2023-08-07T17:59:02;99095.91;;;14.31;100.00
57708;BME280;43540;51.690;9.562;2023-08-07T18:01:29;99110.69;;;14.49;100.00
57708;BME280;43540;51.690;9.562;2023-08-07T18:03:58;99096.38;;;14.52;100.00
57708;BME280;43540;51.690;9.562;2023-08-07T18:06:27;99110.19;;;14.46;100.00
57708;BME280;43540;51.690;9.562;2023-08-07T18:08:53;99107.31;;;14.39;100.00
57708;BME280;43540;51.690;9.562;2023-08-07T18:11:20;99103.81;;;14.31;100.00
57708;BME280;43540;51.690;9.562;2023-08-07T18:13:47;99127.56;;;14.57;100.00
57708;BME280;43540;51.690;9.562;2023-08-07T18:16:15;99107.47;;;14.38;100.00
57708;BME280;43540;51.690;9.562;2023-08-07T18:18:43;99123.28;;;14.56;100.00
57708;BME280;43540;51.690;9.562;2023-08-07T18:21:10;99069.69;;;14.29;100.00
57708;BME280;43540;51.690;9.562;2023-08-07T18:26:12;98985.16;;;13.71;100.00
57708;BME280;43540;51.690;9.562;2023-08-07T18:28:40;98924.09;;;13.23;100.00
57708;BME280;43540;51.690;9.562;2023-08-07T18:31:07;99117.50;;;14.34;100.00
57708;BME280;43540;51.690;9.562;2023-08-07T18:33:35;99010.44;;;13.81;100.00
57708;BME280;43540;51.690;9.562;2023-08-07T18:36:02;99030.59;;;13.90;100.00
57708;BME280;43540;51.690;9.562;2023-08-07T18:38:30;99107.16;;;14.41;100.00
57708;BME280;43540;51.690;9.562;2023-08-07T18:40:57;99102.88;;;14.40;100.00
57708;BME280;43540;51.690;9.562;2023-08-07T18:43:27;99112.34;;;14.50;100.00
57708;BME280;43540;51.690;9.562;2023-08-07T18:45:54;98995.13;;;13.59;100.00
57708;BME280;43540;51.690;9.562;2023-08-07T18:48:21;98916.53;;;13.20;100.00
57708;BME280;43540;51.690;9.562;2023-08-07T18:50:51;98946.19;;;13.48;100.00
57708;BME280;43540;51.690;9.562;2023-08-07T18:53:18;98915.94;;;13.34;100.00
57708;BME280;43540;51.690;9.562;2023-08-07T18:55:45;98916.28;;;13.31;100.00
57708;BME280;43540;51.690;9.562;2023-08-07T18:58:13;98939.53;;;13.36;100.00
57708;BME280;43540;51.690;9.562;2023-08-07T19:00:40;98919.66;;;13.24;100.00
57708;BME280;43540;51.690;9.562;2023-08-07T19:03:07;98911.75;;;13.06;100.00
57708;BME280;43540;51.690;9.562;2023-08-07T19:05:35;99081.22;;;14.02;100.00
57708;BME280;43540;51.690;9.562;2023-08-07T19:08:02;99094.63;;;14.09;100.00
57708;BME280;43540;51.690;9.562;2023-08-07T19:10:29;99108.16;;;14.14;100.00
57708;BME280;43540;51.690;9.562;2023-08-07T19:12:56;99107.16;;;14.15;100.00
57708;BME280;43540;51.690;9.562;2023-08-07T19:15:22;99108.75;;;14.08;100.00
57708;BME280;43540;51.690;9.562;2023-08-07T19:17:50;99082.31;;;13.91;100.00
57708;BME280;43540;51.690;9.562;2023-08-07T19:20:17;99010.94;;;13.41;100.00
57708;BME280;43540;51.690;9.562;2023-08-07T19:22:44;99114.59;;;13.93;100.00
57708;BME280;43540;51.690;9.562;2023-08-07T19:25:11;99099.63;;;13.76;100.00
57708;BME280;43540;51.690;9.562;2023-08-07T19:27:38;99105.97;;;13.83;100.00
57708;BME280;43540;51.690;9.562;2023-08-07T19:30:06;99120.03;;;13.74;100.00
57708;BME280;43540;51.690;9.562;2023-08-07T19:32:32;99114.78;;;13.74;100.00
57708;BME280;43540;51.690;9.562;2023-08-07T19:34:59;99073.78;;;13.54;100.00
57708;BME280;43540;51.690;9.562;2023-08-07T19:37:26;99105.22;;;13.73;100.00
57708;BME280;43540;51.690;9.562;2023-08-07T19:39:53;99112.28;;;13.73;100.00
57708;BME280;43540;51.690;9.562;2023-08-07T19:42:21;99038.81;;;13.16;100.00
57708;BME280;43540;51.690;9.562;2023-08-07T19:44:47;99027.84;;;13.03;100.00
57708;BME280;43540;51.690;9.562;2023-08-07T19:47:15;99025.66;;;12.98;100.00
57708;BME280;43540;51.690;9.562;2023-08-07T19:50:01;99104.38;;;13.19;100.00
57708;BME280;43540;51.690;9.562;2023-08-07T19:52:28;99105.03;;;13.21;100.00
57708;BME280;43540;51.690;9.562;2023-08-07T19:54:55;99096.72;;;13.16;100.00
57708;BME280;43540;51.690;9.562;2023-08-07T19:57:21;99090.94;;;13.13;100.00
57708;BME280;43540;51.690;9.562;2023-08-07T19:59:48;99097.63;;;13.07;100.00
57708;BME280;43540;51.690;9.562;2023-08-07T20:02:15;99036.66;;;12.66;100.00
57708;BME280;43540;51.690;9.562;2023-08-07T20:04:42;99087.03;;;12.99;100.00
57708;BME280;43540;51.690;9.562;2023-08-07T20:07:08;99121.13;;;13.18;100.00
57708;BME280;43540;51.690;9.562;2023-08-07T20:09:35;99123.47;;;13.21;100.00
57708;BME280;43540;51.690;9.562;2023-08-07T20:12:05;99107.19;;;13.08;100.00
57708;BME280;43540;51.690;9.562;2023-08-07T20:14:33;99124.03;;;13.15;100.00
57708;BME280;43540;51.690;9.562;2023-08-07T20:17:04;99093.03;;;12.91;100.00
57708;BME280;43540;51.690;9.562;2023-08-07T20:19:31;99117.72;;;13.08;100.00
57708;BME280;43540;51.690;9.562;2023-08-07T20:21:59;99120.19;;;13.09;100.00
57708;BME280;43540;51.690;9.562;2023-08-07T20:24:26;99114.00;;;13.01;100.00
57708;BME280;43540;51.690;9.562;2023-08-07T20:26:56;99088.78;;;12.80;100.00
57708;BME280;43540;51.690;9.562;2023-08-07T20:29:24;99125.47;;;12.82;100.00
57708;BME280;43540;51.690;9.562;2023-08-07T20:31:52;99112.25;;;12.64;100.00
57708;BME280;43540;51.690;9.562;2023-08-07T20:34:19;99120.94;;;12.74;100.00
57708;BME280;43540;51.690;9.562;2023-08-07T20:36:51;99117.38;;;12.66;100.00
57708;BME280;43540;51.690;9.562;2023-08-07T20:39:18;99056.13;;;12.18;100.00
57708;BME280;43540;51.690;9.562;2023-08-07T20:41:45;99010.31;;;11.84;100.00
57708;BME280;43540;51.690;9.562;2023-08-07T20:44:12;99085.28;;;12.15;100.00
57708;BME280;43540;51.690;9.562;2023-08-07T20:46:39;99132.00;;;12.31;100.00
57708;BME280;43540;51.690;9.562;2023-08-07T20:49:06;99102.59;;;12.18;100.00
57708;BME280;43540;51.690;9.562;2023-08-07T20:51:33;99130.25;;;12.12;100.00
57708;BME280;43540;51.690;9.562;2023-08-07T20:54:00;99131.22;;;12.11;100.00
57708;BME280;43540;51.690;9.562;2023-08-07T20:56:27;99084.53;;;11.86;100.00
57708;BME280;43540;51.690;9.562;2023-08-07T20:58:54;99092.38;;;11.95;100.00
57708;BME280;43540;51.690;9.562;2023-08-07T21:01:31;99112.56;;;12.05;100.00
57708;BME280;43540;51.690;9.562;2023-08-07T21:03:57;99098.31;;;11.98;100.00
57708;BME280;43540;51.690;9.562;2023-08-07T21:06:24;99093.66;;;11.91;100.00
57708;BME280;43540;51.690;9.562;2023-08-07T21:08:51;99130.69;;;12.08;100.00
57708;BME280;43540;51.690;9.562;2023-08-07T21:11:21;99132.06;;;12.02;100.00
57708;BME280;43540;51.690;9.562;2023-08-07T21:13:48;99135.69;;;11.91;100.00
57708;BME280;43540;51.690;9.562;2023-08-07T21:16:14;99085.06;;;11.51;100.00
57708;BME280;43540;51.690;9.562;2023-08-07T21:18:42;99052.34;;;11.26;100.00
57708;BME280;43540;51.690;9.562;2023-08-07T21:21:09;99124.88;;;11.85;100.00
57708;BME280;43540;51.690;9.562;2023-08-07T21:23:36;99069.19;;;11.43;100.00
57708;BME280;43540;51.690;9.562;2023-08-07T21:26:04;99104.00;;;11.74;100.00
57708;BME280;43540;51.690;9.562;2023-08-07T21:28:32;99128.50;;;11.84;100.00
57708;BME280;43540;51.690;9.562;2023-08-07T21:30:59;99041.72;;;11.27;100.00
57708;BME280;43540;51.690;9.562;2023-08-07T21:33:26;99127.78;;;11.72;100.00
57708;BME280;43540;51.690;9.562;2023-08-07T21:35:53;99038.25;;;11.17;100.00
57708;BME280;43540;51.690;9.562;2023-08-07T21:38:20;99130.56;;;11.71;100.00
57708;BME280;43540;51.690;9.562;2023-08-07T21:40:46;99099.72;;;11.53;100.00
57708;BME280;43540;51.690;9.562;2023-08-07T21:43:13;99109.53;;;11.51;100.00
57708;BME280;43540;51.690;9.562;2023-08-07T21:45:40;99127.78;;;11.53;100.00
57708;BME280;43540;51.690;9.562;2023-08-07T21:48:07;99129.84;;;11.49;100.00
57708;BME280;43540;51.690;9.562;2023-08-07T21:50:33;99132.59;;;11.48;100.00
57708;BME280;43540;51.690;9.562;2023-08-07T21:53:03;99091.97;;;11.23;100.00
57708;BME280;43540;51.690;9.562;2023-08-07T21:55:30;99137.56;;;11.41;100.00
57708;BME280;43540;51.690;9.562;2023-08-07T21:57:57;99077.59;;;10.98;100.00
57708;BME280;43540;51.690;9.562;2023-08-07T22:00:24;99119.03;;;11.23;100.00
57708;BME280;43540;51.690;9.562;2023-08-07T22:02:51;99096.94;;;11.06;100.00
57708;BME280;43540;51.690;9.562;2023-08-07T22:05:20;99131.06;;;11.35;100.00
57708;BME280;43540;51.690;9.562;2023-08-07T22:07:47;99116.13;;;11.17;100.00
57708;BME280;43540;51.690;9.562;2023-08-07T22:10:14;99065.81;;;10.82;100.00
57708;BME280;43540;51.690;9.562;2023-08-07T22:12:43;99124.41;;;11.12;100.00
57708;BME280;43540;51.690;9.562;2023-08-07T22:15:10;99130.88;;;11.08;100.00
57708;BME280;43540;51.690;9.562;2023-08-07T22:17:38;99089.69;;;10.79;100.00
57708;BME280;43540;51.690;9.562;2023-08-07T22:20:05;99132.91;;;10.95;100.00
57708;BME280;43540;51.690;9.562;2023-08-07T22:22:33;99066.81;;;10.51;100.00
57708;BME280;43540;51.690;9.562;2023-08-07T22:25:01;99113.94;;;10.72;100.00
57708;BME280;43540;51.690;9.562;2023-08-07T22:27:28;99121.69;;;10.83;100.00
57708;BME280;43540;51.690;9.562;2023-08-07T22:29:54;99111.00;;;10.65;100.00
57708;BME280;43540;51.690;9.562;2023-08-07T22:32:21;99044.16;;;10.19;100.00
57708;BME280;43540;51.690;9.562;2023-08-07T22:34:48;99094.16;;;10.58;100.00
57708;BME280;43540;51.690;9.562;2023-08-07T22:37:15;99046.09;;;9.96;100.00
57708;BME280;43540;51.690;9.562;2023-08-07T22:39:42;99058.19;;;10.09;100.00
57708;BME280;43540;51.690;9.562;2023-08-07T22:42:08;99114.38;;;10.46;100.00
57708;BME280;43540;51.690;9.562;2023-08-07T22:44:35;99124.22;;;10.54;100.00
57708;BME280;43540;51.690;9.562;2023-08-07T22:47:02;99124.91;;;10.56;100.00
57708;BME280;43540;51.690;9.562;2023-08-07T22:49:29;99109.66;;;10.40;100.00
57708;BME280;43540;51.690;9.562;2023-08-07T22:51:56;99042.38;;;9.89;100.00
57708;BME280;43540;51.690;9.562;2023-08-07T22:54:24;99130.81;;;10.48;100.00
57708;BME280;43540;51.690;9.562;2023-08-07T22:56:51;99122.38;;;10.45;100.00
57708;BME280;43540;51.690;9.562;2023-08-07T22:59:18;99130.66;;;10.50;100.00
57708;BME280;43540;51.690;9.562;2023-08-07T23:01:45;99128.97;;;10.39;100.00
57708;BME280;43540;51.690;9.562;2023-08-07T23:04:11;99116.22;;;10.25;100.00
57708;BME280;43540;51.690;9.562;2023-08-07T23:06:38;99105.66;;;10.15;100.00
57708;BME280;43540;51.690;9.562;2023-08-07T23:09:05;99129.78;;;10.19;100.00
57708;BME280;43540;51.690;9.562;2023-08-07T23:11:32;99107.25;;;10.07;100.00
57708;BME280;43540;51.690;9.562;2023-08-07T23:13:59;99124.91;;;10.25;100.00
57708;BME280;43540;51.690;9.562;2023-08-07T23:16:26;99118.56;;;10.07;100.00
57708;BME280;43540;51.690;9.562;2023-08-07T23:18:53;99117.38;;;10.21;100.00
57708;BME280;43540;51.690;9.562;2023-08-07T23:21:20;99123.44;;;10.21;100.00
57708;BME280;43540;51.690;9.562;2023-08-07T23:23:46;99068.41;;;9.91;100.00
57708;BME280;43540;51.690;9.562;2023-08-07T23:26:13;99117.28;;;10.22;100.00
57708;BME280;43540;51.690;9.562;2023-08-07T23:28:40;99034.84;;;9.75;100.00
57708;BME280;43540;51.690;9.562;2023-08-07T23:31:07;99065.53;;;9.94;100.00
57708;BME280;43540;51.690;9.562;2023-08-07T23:33:33;99041.03;;;9.74;100.00
57708;BME280;43540;51.690;9.562;2023-08-07T23:36:00;99074.22;;;9.94;100.00
57708;BME280;43540;51.690;9.562;2023-08-07T23:38:28;99034.00;;;9.75;100.00
57708;BME280;43540;51.690;9.562;2023-08-07T23:40:57;99044.88;;;9.70;100.00
57708;BME280;43540;51.690;9.562;2023-08-07T23:43:27;99073.25;;;9.95;100.00
57708;BME280;43540;51.690;9.562;2023-08-07T23:45:54;99016.59;;;9.64;100.00
57708;BME280;43540;51.690;9.562;2023-08-07T23:48:21;99106.81;;;10.22;100.00
57708;BME280;43540;51.690;9.562;2023-08-07T23:50:47;99097.78;;;10.15;100.00
57708;BME280;43540;51.690;9.562;2023-08-07T23:53:14;99097.00;;;10.04;100.00
57708;BME280;43540;51.690;9.562;2023-08-07T23:55:41;99068.84;;;9.96;100.00
57708;BME280;43540;51.690;9.562;2023-08-07T23:58:08;99102.50;;;10.21;100.00
